createdAt,value
2022-08-17T00:10:14.787Z,97613.56
2022-08-17T00:30:17.767Z,97609.81
2022-08-17T00:50:20.340Z,97615.34
2022-08-17T01:11:00.004Z,97612.81
2022-08-17T01:30:57.189Z,97609.06
2022-08-17T01:51:02.091Z,97620.31
2022-08-17T02:11:04.879Z,97638.06
2022-08-17T02:31:14.243Z,97646.53
2022-08-17T02:51:16.887Z,97631.28
2022-08-17T03:11:19.416Z,97632.19
2022-08-17T03:31:22.961Z,97630.13
2022-08-17T03:51:44.440Z,97633.59
2022-08-17T04:11:47.197Z,97656.19
2022-08-17T04:31:49.896Z,97674.13
2022-08-17T04:51:56.218Z,97678.59
2022-08-17T05:12:00.025Z,97694.84
2022-08-17T05:32:02.709Z,97687.56
2022-08-17T05:52:25.455Z,97700.97
2022-08-17T06:12:28.024Z,97689.88
2022-08-17T06:32:30.659Z,97698.16
2022-08-17T06:52:46.090Z,97687.75
2022-08-17T07:12:58.260Z,97691.94
2022-08-17T07:33:01.022Z,97699.19
2022-08-17T07:53:05.360Z,97716.00
2022-08-17T08:13:09.011Z,97717.44
2022-08-17T08:33:18.333Z,97722.47
2022-08-17T08:53:22.437Z,97724.81
2022-08-17T09:13:25.081Z,97709.53
2022-08-17T09:33:28.123Z,97698.00
2022-08-17T09:53:31.996Z,97710.94
2022-08-17T10:13:34.942Z,97711.28
2022-08-17T10:33:38.352Z,97694.19
2022-08-17T10:53:41.844Z,97697.69
2022-08-17T11:13:46.069Z,97702.31
2022-08-17T11:33:49.713Z,97691.22
2022-08-17T11:54:08.730Z,97701.06
2022-08-17T12:14:19.272Z,97692.06
2022-08-17T12:34:24.122Z,97676.44
2022-08-17T12:54:26.620Z,97664.97
2022-08-17T13:14:29.180Z,97668.16
2022-08-17T13:34:35.177Z,97665.62
2022-08-17T13:54:52.170Z,97671.84
2022-08-17T14:14:58.709Z,97658.75
2022-08-17T14:35:01.913Z,97663.44
2022-08-17T14:55:04.706Z,97667.13
2022-08-17T15:15:07.454Z,97679.88
2022-08-17T15:35:12.471Z,97672.66
2022-08-17T15:55:15.206Z,97674.56
2022-08-17T16:15:17.962Z,97663.22
2022-08-17T16:35:22.671Z,97653.72
2022-08-17T16:55:25.197Z,97671.25
2022-08-17T17:15:28.466Z,97667.78
2022-08-17T17:35:32.871Z,97693.47
2022-08-17T17:55:35.731Z,97710.16
2022-08-17T18:15:38.442Z,97734.66
2022-08-17T18:35:41.166Z,97753.44
2022-08-17T18:55:43.767Z,97759.44
2022-08-17T19:15:46.454Z,97783.06
2022-08-17T19:36:09.051Z,97786.72
2022-08-17T19:56:12.455Z,97794.81
2022-08-17T20:16:14.972Z,97805.97
2022-08-17T20:36:17.493Z,97808.44
2022-08-17T20:56:21.563Z,97799.59
2022-08-17T21:16:24.194Z,97805.09
2022-08-17T21:36:26.920Z,97781.78
2022-08-17T21:56:29.643Z,97803.09
2022-08-17T22:16:32.161Z,97806.47
2022-08-17T22:36:34.955Z,97777.59
2022-08-17T22:56:56.297Z,97776.66
2022-08-17T23:16:58.805Z,97757.38
2022-08-17T23:37:03.345Z,97791.59
2022-08-17T23:57:10.410Z,97802.16
